sensor_id;sensor_type;location;lat;lon;timestamp;pressure;altitude;pressure_sealevel;temperature;humidity
72370;BME280;60343;-32.030;115.880;2023-06-04T00:02:26;101593.00;;;11.07;77.31
72370;BME280;60343;-32.030;115.880;2023-06-04T00:05:03;101593.03;;;11.33;76.66
72370;BME280;60343;-32.030;115.880;2023-06-04T00:07:45;101589.28;;;11.52;76.23
72370;BME280;60343;-32.030;115.880;2023-06-04T00:10:21;101581.94;;;11.62;75.40
72370;BME280;60343;-32.030;115.880;2023-06-04T00:12:58;101580.13;;;11.96;73.25
72370;BME280;60343;-32.030;115.880;2023-06-04T00:15:34;101582.19;;;12.11;72.96
72370;BME280;60343;-32.030;115.880;2023-06-04T00:18:10;101581.56;;;12.33;72.02
72370;BME280;60343;-32.030;115.880;2023-06-04T00:20:47;101576.91;;;12.59;71.28
72370;BME280;60343;-32.030;115.880;2023-06-04T00:23:31;101574.25;;;12.67;70.69
72370;BME280;60343;-32.030;115.880;2023-06-04T00:26:07;101576.72;;;12.93;69.88
72370;BME280;60343;-32.030;115.880;2023-06-04T00:28:43;101565.81;;;13.03;69.86
72370;BME280;60343;-32.030;115.880;2023-06-04T00:31:21;101574.53;;;13.37;68.37
72370;BME280;60343;-32.030;115.880;2023-06-04T00:33:57;101575.09;;;13.71;67.41
72370;BME280;60343;-32.030;115.880;2023-06-04T00:36:33;101583.13;;;13.80;66.54
72370;BME280;60343;-32.030;115.880;2023-06-04T00:39:16;101579.47;;;14.03;65.97
72370;BME280;60343;-32.030;115.880;2023-06-04T00:41:52;101577.53;;;14.28;64.88
72370;BME280;60343;-32.030;115.880;2023-06-04T00:44:28;101588.41;;;14.35;64.63
72370;BME280;60343;-32.030;115.880;2023-06-04T00:47:05;101582.94;;;14.51;63.04
72370;BME280;60343;-32.030;115.880;2023-06-04T00:49:42;101593.00;;;14.80;62.40
72370;BME280;60343;-32.030;115.880;2023-06-04T00:52:18;101583.34;;;15.23;61.30
72370;BME280;60343;-32.030;115.880;2023-06-04T00:55:01;101583.97;;;15.77;60.23
72370;BME280;60343;-32.030;115.880;2023-06-04T00:57:38;101588.53;;;16.27;58.02
72370;BME280;60343;-32.030;115.880;2023-06-04T01:00:15;101580.63;;;16.47;57.50
72370;BME280;60343;-32.030;115.880;2023-06-04T01:02:53;101577.84;;;16.76;56.07
72370;BME280;60343;-32.030;115.880;2023-06-04T01:05:39;101590.72;;;17.23;55.68
72370;BME280;60343;-32.030;115.880;2023-06-04T01:08:17;101586.19;;;17.30;54.21
72370;BME280;60343;-32.030;115.880;2023-06-04T01:11:00;101591.22;;;17.61;53.76
72370;BME280;60343;-32.030;115.880;2023-06-04T01:13:36;101590.56;;;17.93;52.63
72370;BME280;60343;-32.030;115.880;2023-06-04T01:16:14;101590.00;;;18.05;52.70
72370;BME280;60343;-32.030;115.880;2023-06-04T01:18:51;101587.56;;;18.23;52.08
72370;BME280;60343;-32.030;115.880;2023-06-04T01:21:30;101593.41;;;18.33;51.15
72370;BME280;60343;-32.030;115.880;2023-06-04T01:24:09;101592.41;;;18.47;50.91
72370;BME280;60343;-32.030;115.880;2023-06-04T01:26:52;101598.31;;;18.57;50.62
72370;BME280;60343;-32.030;115.880;2023-06-04T01:29:28;101591.09;;;18.23;51.70
72370;BME280;60343;-32.030;115.880;2023-06-04T01:32:05;101584.75;;;18.57;51.12
72370;BME280;60343;-32.030;115.880;2023-06-04T01:34:46;101585.53;;;18.44;50.34
72370;BME280;60343;-32.030;115.880;2023-06-04T01:37:22;101579.78;;;18.94;50.27
72370;BME280;60343;-32.030;115.880;2023-06-04T01:39:58;101582.69;;;19.12;48.56
72370;BME280;60343;-32.030;115.880;2023-06-04T01:42:42;101577.06;;;19.20;48.61
72370;BME280;60343;-32.030;115.880;2023-06-04T01:45:20;101577.25;;;19.38;48.63
72370;BME280;60343;-32.030;115.880;2023-06-04T01:47:56;101576.56;;;19.76;46.96
72370;BME280;60343;-32.030;115.880;2023-06-04T01:50:33;101575.94;;;19.80;47.07
72370;BME280;60343;-32.030;115.880;2023-06-04T01:53:09;101574.63;;;19.96;47.17
72370;BME280;60343;-32.030;115.880;2023-06-04T01:55:45;101580.53;;;20.24;46.35
72370;BME280;60343;-32.030;115.880;2023-06-04T01:58:28;101574.47;;;20.35;45.97
72370;BME280;60343;-32.030;115.880;2023-06-04T02:01:04;101572.59;;;20.67;45.31
72370;BME280;60343;-32.030;115.880;2023-06-04T02:03:40;101580.97;;;20.66;44.86
72370;BME280;60343;-32.030;115.880;2023-06-04T02:06:17;101572.25;;;20.57;44.44
72370;BME280;60343;-32.030;115.880;2023-06-04T02:08:53;101561.91;;;20.66;45.61
72370;BME280;60343;-32.030;115.880;2023-06-04T02:11:29;101554.84;;;20.83;45.74
72370;BME280;60343;-32.030;115.880;2023-06-04T02:14:12;101554.09;;;20.76;44.78
72370;BME280;60343;-32.030;115.880;2023-06-04T02:16:48;101552.47;;;20.68;45.14
72370;BME280;60343;-32.030;115.880;2023-06-04T02:19:26;101538.19;;;20.73;45.09
72370;BME280;60343;-32.030;115.880;2023-06-04T02:22:05;101538.81;;;20.75;44.60
72370;BME280;60343;-32.030;115.880;2023-06-04T02:24:42;101531.31;;;20.95;45.00
72370;BME280;60343;-32.030;115.880;2023-06-04T02:27:19;101519.56;;;20.76;44.20
72370;BME280;60343;-32.030;115.880;2023-06-04T02:30:01;101517.50;;;20.96;44.16
72370;BME280;60343;-32.030;115.880;2023-06-04T02:32:38;101516.00;;;20.76;44.54
72370;BME280;60343;-32.030;115.880;2023-06-04T02:35:14;101503.22;;;20.51;43.49
72370;BME280;60343;-32.030;115.880;2023-06-04T02:37:51;101509.78;;;20.37;44.43
72370;BME280;60343;-32.030;115.880;2023-06-04T02:40:27;101505.41;;;20.30;43.45
72370;BME280;60343;-32.030;115.880;2023-06-04T02:43:04;101492.75;;;20.48;45.12
72370;BME280;60343;-32.030;115.880;2023-06-04T02:45:46;101492.50;;;20.25;43.19
72370;BME280;60343;-32.030;115.880;2023-06-04T02:48:22;101497.94;;;20.25;43.49
72370;BME280;60343;-32.030;115.880;2023-06-04T02:50:59;101498.97;;;20.31;43.36
72370;BME280;60343;-32.030;115.880;2023-06-04T02:53:38;101488.19;;;20.42;43.45
72370;BME280;60343;-32.030;115.880;2023-06-04T02:56:14;101489.31;;;20.28;43.26
72370;BME280;60343;-32.030;115.880;2023-06-04T02:58:53;101482.81;;;20.36;43.50
72370;BME280;60343;-32.030;115.880;2023-06-04T03:01:36;101472.50;;;20.44;43.61
72370;BME280;60343;-32.030;115.880;2023-06-04T03:04:13;101467.22;;;20.49;44.49
72370;BME280;60343;-32.030;115.880;2023-06-04T03:06:49;101465.13;;;20.51;42.42
72370;BME280;60343;-32.030;115.880;2023-06-04T03:09:25;101455.41;;;20.62;40.76
72370;BME280;60343;-32.030;115.880;2023-06-04T03:12:02;101449.19;;;20.80;42.48
72370;BME280;60343;-32.030;115.880;2023-06-04T03:14:39;101442.75;;;20.92;42.70
72370;BME280;60343;-32.030;115.880;2023-06-04T03:17:21;101427.41;;;20.98;42.43
72370;BME280;60343;-32.030;115.880;2023-06-04T03:19:59;101419.72;;;21.13;43.14
72370;BME280;60343;-32.030;115.880;2023-06-04T03:22:38;101412.28;;;21.27;41.08
72370;BME280;60343;-32.030;115.880;2023-06-04T03:25:14;101402.66;;;21.43;42.35
72370;BME280;60343;-32.030;115.880;2023-06-04T03:27:51;101394.84;;;21.28;41.65
72370;BME280;60343;-32.030;115.880;2023-06-04T03:30:27;101384.31;;;21.50;41.94
72370;BME280;60343;-32.030;115.880;2023-06-04T03:33:10;101368.84;;;21.32;42.64
72370;BME280;60343;-32.030;115.880;2023-06-04T03:35:46;101361.19;;;21.04;41.69
72370;BME280;60343;-32.030;115.880;2023-06-04T03:38:25;101354.53;;;21.00;41.89
72370;BME280;60343;-32.030;115.880;2023-06-04T03:41:02;101360.13;;;20.87;43.31
72370;BME280;60343;-32.030;115.880;2023-06-04T03:43:38;101344.91;;;20.97;42.43
72370;BME280;60343;-32.030;115.880;2023-06-04T03:46:18;101336.38;;;20.94;43.21
72370;BME280;60343;-32.030;115.880;2023-06-04T03:49:40;101318.47;;;20.86;43.40
72370;BME280;60343;-32.030;115.880;2023-06-04T03:52:19;101319.00;;;20.77;44.48
72370;BME280;60343;-32.030;115.880;2023-06-04T03:55:24;101314.69;;;20.87;44.32
72370;BME280;60343;-32.030;115.880;2023-06-04T03:58:26;101312.78;;;20.88;46.28
72370;BME280;60343;-32.030;115.880;2023-06-04T04:01:08;101302.16;;;20.86;47.02
72370;BME280;60343;-32.030;115.880;2023-06-04T04:03:46;101290.19;;;21.06;46.46
72370;BME280;60343;-32.030;115.880;2023-06-04T04:06:29;101281.72;;;21.14;45.38
72370;BME280;60343;-32.030;115.880;2023-06-04T04:09:06;101272.47;;;21.15;44.98
72370;BME280;60343;-32.030;115.880;2023-06-04T04:11:42;101270.72;;;21.20;45.63
72370;BME280;60343;-32.030;115.880;2023-06-04T04:14:18;101262.44;;;21.15;44.48
72370;BME280;60343;-32.030;115.880;2023-06-04T04:16:54;101258.19;;;21.19;44.94
72370;BME280;60343;-32.030;115.880;2023-06-04T04:19:31;101263.66;;;21.13;45.84
72370;BME280;60343;-32.030;115.880;2023-06-04T04:22:13;101257.66;;;21.11;45.08
72370;BME280;60343;-32.030;115.880;2023-06-04T04:24:51;101242.97;;;21.12;44.75
72370;BME280;60343;-32.030;115.880;2023-06-04T04:27:27;101226.09;;;21.21;45.03
72370;BME280;60343;-32.030;115.880;2023-06-04T04:30:08;101222.78;;;21.19;44.58
72370;BME280;60343;-32.030;115.880;2023-06-04T04:32:45;101206.25;;;21.32;44.47
72370;BME280;60343;-32.030;115.880;2023-06-04T04:35:21;101201.06;;;21.43;45.54
72370;BME280;60343;-32.030;115.880;2023-06-04T04:38:04;101191.34;;;21.47;44.90
72370;BME280;60343;-32.030;115.880;2023-06-04T04:40:40;101182.34;;;21.46;45.21
72370;BME280;60343;-32.030;115.880;2023-06-04T04:43:16;101181.53;;;21.57;46.63
72370;BME280;60343;-32.030;115.880;2023-06-04T04:45:52;101167.31;;;21.55;45.87
72370;BME280;60343;-32.030;115.880;2023-06-04T04:48:29;101171.81;;;21.61;45.37
72370;BME280;60343;-32.030;115.880;2023-06-04T04:51:06;101155.69;;;21.60;45.13
72370;BME280;60343;-32.030;115.880;2023-06-04T04:54:02;101153.78;;;21.49;45.66
72370;BME280;60343;-32.030;115.880;2023-06-04T04:56:39;101159.63;;;21.52;47.29
72370;BME280;60343;-32.030;115.880;2023-06-04T04:59:15;101154.53;;;21.67;46.17
72370;BME280;60343;-32.030;115.880;2023-06-04T05:01:52;101159.00;;;21.85;46.32
72370;BME280;60343;-32.030;115.880;2023-06-04T05:04:28;101159.50;;;22.17;44.53
72370;BME280;60343;-32.030;115.880;2023-06-04T05:07:04;101148.81;;;22.04;45.83
72370;BME280;60343;-32.030;115.880;2023-06-04T05:09:47;101142.66;;;21.85;44.79
72370;BME280;60343;-32.030;115.880;2023-06-04T05:12:24;101143.97;;;21.71;46.75
72370;BME280;60343;-32.030;115.880;2023-06-04T05:15:01;101139.72;;;21.52;52.24
72370;BME280;60343;-32.030;115.880;2023-06-04T05:17:37;101135.75;;;21.24;53.25
72370;BME280;60343;-32.030;115.880;2023-06-04T05:20:15;101136.47;;;21.20;53.62
72370;BME280;60343;-32.030;115.880;2023-06-04T05:22:51;101122.78;;;21.08;53.99
72370;BME280;60343;-32.030;115.880;2023-06-04T05:25:33;101130.06;;;21.14;53.64
72370;BME280;60343;-32.030;115.880;2023-06-04T05:28:10;101108.22;;;21.03;53.07
72370;BME280;60343;-32.030;115.880;2023-06-04T05:30:46;101098.72;;;21.35;52.68
72370;BME280;60343;-32.030;115.880;2023-06-04T05:33:27;101096.34;;;21.50;52.68
72370;BME280;60343;-32.030;115.880;2023-06-04T05:36:03;101073.34;;;21.81;51.56
72370;BME280;60343;-32.030;115.880;2023-06-04T05:38:40;101075.13;;;21.64;51.53
72370;BME280;60343;-32.030;115.880;2023-06-04T05:41:23;101067.78;;;21.64;52.13
72370;BME280;60343;-32.030;115.880;2023-06-04T05:43:59;101061.28;;;21.54;51.26
72370;BME280;60343;-32.030;115.880;2023-06-04T05:46:36;101058.22;;;21.38;52.07
72370;BME280;60343;-32.030;115.880;2023-06-04T05:49:12;101064.56;;;21.09;52.52
72370;BME280;60343;-32.030;115.880;2023-06-04T05:51:48;101065.84;;;20.95;54.12
72370;BME280;60343;-32.030;115.880;2023-06-04T05:54:24;101064.66;;;20.91;53.71
72370;BME280;60343;-32.030;115.880;2023-06-04T05:57:07;101059.19;;;20.79;53.75
72370;BME280;60343;-32.030;115.880;2023-06-04T05:59:43;101054.47;;;20.75;54.44
72370;BME280;60343;-32.030;115.880;2023-06-04T06:02:20;101052.91;;;20.67;54.33
72370;BME280;60343;-32.030;115.880;2023-06-04T06:04:56;101044.38;;;20.64;55.98
72370;BME280;60343;-32.030;115.880;2023-06-04T06:07:32;101050.50;;;20.59;56.07
72370;BME280;60343;-32.030;115.880;2023-06-04T06:10:09;101035.38;;;20.51;56.94
72370;BME280;60343;-32.030;115.880;2023-06-04T06:12:52;101028.53;;;20.61;56.61
72370;BME280;60343;-32.030;115.880;2023-06-04T06:15:29;101022.22;;;20.48;57.70
72370;BME280;60343;-32.030;115.880;2023-06-04T06:18:05;101021.50;;;20.41;57.92
72370;BME280;60343;-32.030;115.880;2023-06-04T06:20:42;101013.22;;;20.48;57.80
72370;BME280;60343;-32.030;115.880;2023-06-04T06:23:18;101008.38;;;20.50;59.03
72370;BME280;60343;-32.030;115.880;2023-06-04T06:25:54;100993.22;;;20.42;58.19
72370;BME280;60343;-32.030;115.880;2023-06-04T06:28:37;100993.81;;;20.44;58.27
72370;BME280;60343;-32.030;115.880;2023-06-04T06:31:14;100999.13;;;20.39;59.03
72370;BME280;60343;-32.030;115.880;2023-06-04T06:33:51;100990.97;;;20.39;59.14
72370;BME280;60343;-32.030;115.880;2023-06-04T06:36:27;100986.28;;;20.28;59.95
72370;BME280;60343;-32.030;115.880;2023-06-04T06:39:03;100982.06;;;20.32;59.01
72370;BME280;60343;-32.030;115.880;2023-06-04T06:41:40;100977.84;;;20.36;58.53
72370;BME280;60343;-32.030;115.880;2023-06-04T06:44:22;100987.47;;;20.21;58.99
72370;BME280;60343;-32.030;115.880;2023-06-04T06:46:58;100975.00;;;20.13;60.10
72370;BME280;60343;-32.030;115.880;2023-06-04T06:49:35;100968.31;;;20.16;59.59
72370;BME280;60343;-32.030;115.880;2023-06-04T06:52:11;100969.44;;;20.08;59.79
72370;BME280;60343;-32.030;115.880;2023-06-04T06:54:48;100966.59;;;20.03;60.47
72370;BME280;60343;-32.030;115.880;2023-06-04T06:57:24;100980.56;;;20.06;59.42
72370;BME280;60343;-32.030;115.880;2023-06-04T07:00:09;100978.44;;;20.08;60.75
72370;BME280;60343;-32.030;115.880;2023-06-04T07:02:45;100978.38;;;19.97;62.67
72370;BME280;60343;-32.030;115.880;2023-06-04T07:05:22;100972.97;;;19.79;62.26
72370;BME280;60343;-32.030;115.880;2023-06-04T07:07:58;100978.88;;;19.76;62.15
72370;BME280;60343;-32.030;115.880;2023-06-04T07:10:35;100980.53;;;19.58;63.22
72370;BME280;60343;-32.030;115.880;2023-06-04T07:13:11;100985.56;;;19.37;66.28
72370;BME280;60343;-32.030;115.880;2023-06-04T07:15:53;101002.22;;;19.22;69.28
72370;BME280;60343;-32.030;115.880;2023-06-04T07:18:30;100999.13;;;18.75;72.17
72370;BME280;60343;-32.030;115.880;2023-06-04T07:21:06;100986.81;;;18.41;75.08
72370;BME280;60343;-32.030;115.880;2023-06-04T07:23:42;100993.50;;;18.08;78.31
72370;BME280;60343;-32.030;115.880;2023-06-04T07:26:19;100984.25;;;17.77;78.83
72370;BME280;60343;-32.030;115.880;2023-06-04T07:28:58;100982.91;;;17.42;80.70
72370;BME280;60343;-32.030;115.880;2023-06-04T07:31:42;100980.88;;;17.24;82.25
72370;BME280;60343;-32.030;115.880;2023-06-04T07:34:19;100981.53;;;17.06;82.29
72370;BME280;60343;-32.030;115.880;2023-06-04T07:36:55;100975.50;;;17.04;82.16
72370;BME280;60343;-32.030;115.880;2023-06-04T07:39:31;100971.94;;;17.10;81.93
72370;BME280;60343;-32.030;115.880;2023-06-04T07:42:07;100955.50;;;17.05;81.70
72370;BME280;60343;-32.030;115.880;2023-06-04T07:44:44;100948.03;;;17.07;79.88
72370;BME280;60343;-32.030;115.880;2023-06-04T07:47:26;100925.56;;;17.13;79.38
72370;BME280;60343;-32.030;115.880;2023-06-04T07:50:03;100918.72;;;17.04;78.37
72370;BME280;60343;-32.030;115.880;2023-06-04T07:52:39;100914.94;;;17.12;78.94
72370;BME280;60343;-32.030;115.880;2023-06-04T07:55:15;100918.09;;;16.96;80.51
72370;BME280;60343;-32.030;115.880;2023-06-04T07:57:52;100908.75;;;16.85;80.26
72370;BME280;60343;-32.030;115.880;2023-06-04T08:00:28;100915.22;;;16.78;81.00
72370;BME280;60343;-32.030;115.880;2023-06-04T08:03:10;100927.47;;;16.80;80.45
72370;BME280;60343;-32.030;115.880;2023-06-04T08:05:49;100945.59;;;16.66;81.94
72370;BME280;60343;-32.030;115.880;2023-06-04T08:08:25;100953.91;;;16.65;82.01
72370;BME280;60343;-32.030;115.880;2023-06-04T08:11:02;100980.50;;;16.48;83.01
72370;BME280;60343;-32.030;115.880;2023-06-04T08:13:38;101011.44;;;16.46;85.38
72370;BME280;60343;-32.030;115.880;2023-06-04T08:16:15;101000.81;;;16.24;89.02
72370;BME280;60343;-32.030;115.880;2023-06-04T08:18:57;100968.97;;;16.00;91.77
72370;BME280;60343;-32.030;115.880;2023-06-04T08:21:35;100943.03;;;15.99;92.63
72370;BME280;60343;-32.030;115.880;2023-06-04T08:24:13;100956.25;;;15.81;92.60
72370;BME280;60343;-32.030;115.880;2023-06-04T08:26:49;100954.13;;;15.70;93.44
72370;BME280;60343;-32.030;115.880;2023-06-04T08:29:25;100957.66;;;15.70;94.52
72370;BME280;60343;-32.030;115.880;2023-06-04T08:32:02;100971.53;;;15.61;95.13
72370;BME280;60343;-32.030;115.880;2023-06-04T08:34:45;100956.81;;;15.63;96.36
72370;BME280;60343;-32.030;115.880;2023-06-04T08:37:22;100970.53;;;15.75;96.93
72370;BME280;60343;-32.030;115.880;2023-06-04T08:39:58;100957.28;;;15.73;97.64
72370;BME280;60343;-32.030;115.880;2023-06-04T08:42:38;100948.09;;;15.68;97.51
72370;BME280;60343;-32.030;115.880;2023-06-04T08:45:17;100926.69;;;15.60;96.85
72370;BME280;60343;-32.030;115.880;2023-06-04T08:47:56;100979.84;;;15.66;98.13
72370;BME280;60343;-32.030;115.880;2023-06-04T08:50:40;100902.00;;;15.63;98.17
72370;BME280;60343;-32.030;115.880;2023-06-04T08:53:19;100911.94;;;15.56;97.18
72370;BME280;60343;-32.030;115.880;2023-06-04T08:55:56;100919.78;;;15.51;98.30
72370;BME280;60343;-32.030;115.880;2023-06-04T08:58:33;100920.03;;;15.56;98.73
72370;BME280;60343;-32.030;115.880;2023-06-04T09:01:10;100912.56;;;15.64;99.40
72370;BME280;60343;-32.030;115.880;2023-06-04T09:03:46;100900.97;;;15.70;99.19
72370;BME280;60343;-32.030;115.880;2023-06-04T09:06:31;100885.00;;;15.75;99.76
72370;BME280;60343;-32.030;115.880;2023-06-04T09:09:10;100870.28;;;15.78;99.59
72370;BME280;60343;-32.030;115.880;2023-06-04T09:11:51;100868.81;;;15.82;99.43
72370;BME280;60343;-32.030;115.880;2023-06-04T09:14:28;100889.41;;;15.83;99.58
72370;BME280;60343;-32.030;115.880;2023-06-04T09:17:04;100913.28;;;15.86;99.77
72370;BME280;60343;-32.030;115.880;2023-06-04T09:19:41;100917.03;;;15.98;99.29
72370;BME280;60343;-32.030;115.880;2023-06-04T09:22:33;100893.56;;;16.05;99.19
72370;BME280;60343;-32.030;115.880;2023-06-04T09:25:20;100896.66;;;15.96;99.23
72370;BME280;60343;-32.030;115.880;2023-06-04T09:28:05;100872.19;;;15.97;99.33
72370;BME280;60343;-32.030;115.880;2023-06-04T09:30:52;100858.25;;;15.94;99.34
72370;BME280;60343;-32.030;115.880;2023-06-04T09:33:28;100850.78;;;15.96;99.68
72370;BME280;60343;-32.030;115.880;2023-06-04T09:36:05;100872.38;;;15.96;100.00
72370;BME280;60343;-32.030;115.880;2023-06-04T09:38:47;100853.91;;;16.06;100.00
72370;BME280;60343;-32.030;115.880;2023-06-04T09:41:23;100882.56;;;16.07;100.00
72370;BME280;60343;-32.030;115.880;2023-06-04T09:44:03;100987.53;;;16.23;100.00
72370;BME280;60343;-32.030;115.880;2023-06-04T09:46:40;100964.00;;;16.04;95.58
72370;BME280;60343;-32.030;115.880;2023-06-04T09:49:16;100955.56;;;15.66;93.28
72370;BME280;60343;-32.030;115.880;2023-06-04T09:51:53;100939.16;;;15.26;91.69
72370;BME280;60343;-32.030;115.880;2023-06-04T09:54:42;100958.91;;;14.99;92.85
72370;BME280;60343;-32.030;115.880;2023-06-04T09:57:19;100966.25;;;14.77;94.15
72370;BME280;60343;-32.030;115.880;2023-06-04T09:59:57;100974.00;;;14.66;95.05
72370;BME280;60343;-32.030;115.880;2023-06-04T10:02:40;100971.06;;;14.60;96.46
72370;BME280;60343;-32.030;115.880;2023-06-04T10:05:19;100945.16;;;14.59;96.45
72370;BME280;60343;-32.030;115.880;2023-06-04T10:07:57;100931.06;;;14.57;97.55
72370;BME280;60343;-32.030;115.880;2023-06-04T10:10:42;100931.69;;;14.59;96.95
72370;BME280;60343;-32.030;115.880;2023-06-04T10:13:24;100910.13;;;14.59;97.46
72370;BME280;60343;-32.030;115.880;2023-06-04T10:16:07;100908.31;;;14.67;97.18
72370;BME280;60343;-32.030;115.880;2023-06-04T10:18:44;100904.16;;;14.64;97.46
72370;BME280;60343;-32.030;115.880;2023-06-04T10:21:21;100905.88;;;14.72;97.01
72370;BME280;60343;-32.030;115.880;2023-06-04T10:24:00;100912.09;;;14.72;98.38
72370;BME280;60343;-32.030;115.880;2023-06-04T10:27:00;100889.94;;;14.77;98.37
72370;BME280;60343;-32.030;115.880;2023-06-04T10:29:41;100873.59;;;14.78;99.10
72370;BME280;60343;-32.030;115.880;2023-06-04T10:32:19;100862.81;;;14.85;99.15
72370;BME280;60343;-32.030;115.880;2023-06-04T10:34:55;100882.16;;;14.88;98.96
72370;BME280;60343;-32.030;115.880;2023-06-04T10:37:33;100881.56;;;14.93;99.81
72370;BME280;60343;-32.030;115.880;2023-06-04T10:40:10;100857.94;;;15.01;98.48
72370;BME280;60343;-32.030;115.880;2023-06-04T10:42:52;100861.28;;;15.03;99.23
72370;BME280;60343;-32.030;115.880;2023-06-04T10:45:31;100868.31;;;15.04;99.46
72370;BME280;60343;-32.030;115.880;2023-06-04T10:48:08;100879.41;;;15.29;98.50
72370;BME280;60343;-32.030;115.880;2023-06-04T10:50:52;100873.44;;;15.40;98.42
72370;BME280;60343;-32.030;115.880;2023-06-04T10:53:38;100873.56;;;15.54;98.20
72370;BME280;60343;-32.030;115.880;2023-06-04T10:56:15;100866.22;;;15.48;97.51
72370;BME280;60343;-32.030;115.880;2023-06-04T10:59:15;100855.59;;;15.39;97.63
72370;BME280;60343;-32.030;115.880;2023-06-04T11:01:52;100849.41;;;15.39;97.21
72370;BME280;60343;-32.030;115.880;2023-06-04T11:04:40;100833.94;;;15.20;98.01
72370;BME280;60343;-32.030;115.880;2023-06-04T11:07:16;100847.66;;;15.18;98.68
72370;BME280;60343;-32.030;115.880;2023-06-04T11:09:53;100857.34;;;15.06;98.56
72370;BME280;60343;-32.030;115.880;2023-06-04T11:12:43;100852.56;;;15.01;99.52
72370;BME280;60343;-32.030;115.880;2023-06-04T11:15:25;100827.69;;;15.06;99.01
72370;BME280;60343;-32.030;115.880;2023-06-04T11:18:02;100815.84;;;15.00;99.45
72370;BME280;60343;-32.030;115.880;2023-06-04T11:20:38;100816.50;;;15.09;99.03
72370;BME280;60343;-32.030;115.880;2023-06-04T11:23:15;100794.72;;;15.11;99.39
72370;BME280;60343;-32.030;115.880;2023-06-04T11:25:53;100799.56;;;15.28;98.96
72370;BME280;60343;-32.030;115.880;2023-06-04T11:28:31;100775.69;;;15.19;98.56
72370;BME280;60343;-32.030;115.880;2023-06-04T11:31:14;100794.56;;;15.19;99.26
72370;BME280;60343;-32.030;115.880;2023-06-04T11:33:51;100818.84;;;15.19;99.65
72370;BME280;60343;-32.030;115.880;2023-06-04T11:36:28;100810.31;;;15.22;99.47
72370;BME280;60343;-32.030;115.880;2023-06-04T11:39:05;100812.44;;;15.33;99.59
72370;BME280;60343;-32.030;115.880;2023-06-04T11:41:43;100802.09;;;15.43;98.96
72370;BME280;60343;-32.030;115.880;2023-06-04T11:44:20;100785.88;;;15.36;99.25
72370;BME280;60343;-32.030;115.880;2023-06-04T11:47:06;100790.00;;;15.26;99.58
72370;BME280;60343;-32.030;115.880;2023-06-04T11:49:44;100784.59;;;15.26;100.00
72370;BME280;60343;-32.030;115.880;2023-06-04T11:52:21;100777.16;;;15.28;100.00
72370;BME280;60343;-32.030;115.880;2023-06-04T11:54:57;100781.28;;;15.30;99.66
72370;BME280;60343;-32.030;115.880;2023-06-04T11:57:34;100760.56;;;15.31;99.89
72370;BME280;60343;-32.030;115.880;2023-06-04T12:00:11;100774.84;;;15.25;99.70
72370;BME280;60343;-32.030;115.880;2023-06-04T12:02:57;100763.25;;;15.31;100.00
72370;BME280;60343;-32.030;115.880;2023-06-04T12:05:33;100775.06;;;15.23;99.70
72370;BME280;60343;-32.030;115.880;2023-06-04T12:08:10;100778.22;;;15.33;100.00
72370;BME280;60343;-32.030;115.880;2023-06-04T12:10:46;100792.53;;;15.40;99.96
72370;BME280;60343;-32.030;115.880;2023-06-04T12:13:23;100802.06;;;15.36;98.63
72370;BME280;60343;-32.030;115.880;2023-06-04T12:15:59;100771.97;;;15.39;99.83
72370;BME280;60343;-32.030;115.880;2023-06-04T12:18:41;100777.59;;;15.44;100.00
72370;BME280;60343;-32.030;115.880;2023-06-04T12:21:22;100768.94;;;15.56;100.00
72370;BME280;60343;-32.030;115.880;2023-06-04T12:24:08;100778.47;;;15.52;100.00
72370;BME280;60343;-32.030;115.880;2023-06-04T12:26:43;100777.41;;;15.46;100.00
72370;BME280;60343;-32.030;115.880;2023-06-04T12:29:20;100761.00;;;15.48;100.00
72370;BME280;60343;-32.030;115.880;2023-06-04T12:32:03;100754.78;;;15.47;100.00
72370;BME280;60343;-32.030;115.880;2023-06-04T12:34:46;100756.66;;;15.46;100.00
72370;BME280;60343;-32.030;115.880;2023-06-04T12:37:23;100749.19;;;15.49;100.00
72370;BME280;60343;-32.030;115.880;2023-06-04T12:40:00;100744.03;;;15.54;100.00
72370;BME280;60343;-32.030;115.880;2023-06-04T12:42:37;100753.56;;;15.69;100.00
72370;BME280;60343;-32.030;115.880;2023-06-04T12:45:14;100768.53;;;15.72;100.00
72370;BME280;60343;-32.030;115.880;2023-06-04T12:47:50;100756.09;;;15.84;100.00
72370;BME280;60343;-32.030;115.880;2023-06-04T12:50:33;100766.88;;;16.04;100.00
72370;BME280;60343;-32.030;115.880;2023-06-04T12:53:09;100746.31;;;16.09;99.17
72370;BME280;60343;-32.030;115.880;2023-06-04T12:55:45;100749.19;;;15.95;100.00
72370;BME280;60343;-32.030;115.880;2023-06-04T12:58:32;100757.94;;;15.97;100.00
72370;BME280;60343;-32.030;115.880;2023-06-04T13:01:08;100778.31;;;15.99;100.00
72370;BME280;60343;-32.030;115.880;2023-06-04T13:03:44;100795.53;;;15.98;100.00
72370;BME280;60343;-32.030;115.880;2023-06-04T13:06:30;100789.28;;;15.84;100.00
72370;BME280;60343;-32.030;115.880;2023-06-04T13:09:07;100772.91;;;15.73;100.00
72370;BME280;60343;-32.030;115.880;2023-06-04T13:11:44;100771.84;;;15.67;100.00
72370;BME280;60343;-32.030;115.880;2023-06-04T13:14:21;100765.63;;;15.67;100.00
72370;BME280;60343;-32.030;115.880;2023-06-04T13:17:01;100766.88;;;15.84;100.00
72370;BME280;60343;-32.030;115.880;2023-06-04T13:19:37;100763.97;;;15.85;100.00